Time;durP1;ratioP1;P1;durP2;ratioP2;P2;SDS_P1;SDS_P2;PMS_P1;PMS_P2;Temp;Humidity;BMP_temperature;BMP_pressure;BME280_temperature;BME280_humidity;BME280_pressure;Samples;Min_cycle;Max_cycle;Signal;HPM_P1;HPM_P2
2023/09/19 00:00:41;;;;;;;9.93;2.90;;;14.50;99.90;;;;;;4998897;28;20521;-65
2023/09/19 00:03:08;;;;;;;11.45;3.50;;;14.50;99.90;;;;;;4995279;28;20046;-65
2023/09/19 00:05:35;;;;;;;12.70;3.42;;;14.40;99.90;;;;;;5005666;28;20095;-65
2023/09/19 00:08:04;;;;;;;7.78;2.80;;;14.40;99.90;;;;;;4952805;28;20129;-65
2023/09/19 00:10:31;;;;;;;8.45;3.38;;;14.40;99.90;;;;;;5008718;28;20531;-64
2023/09/19 00:13:05;;;;;;;6.53;2.72;;;14.40;99.90;;;;;;4993040;28;20100;-64
2023/09/19 00:15:37;;;;;;;8.45;2.50;;;14.30;99.90;;;;;;4994086;28;20401;-65
2023/09/19 00:18:06;;;;;;;5.30;2.42;;;14.20;99.90;;;;;;5002945;28;20089;-64
2023/09/19 00:20:32;;;;;;;7.47;2.47;;;14.10;99.90;;;;;;4993706;28;20050;-67
2023/09/19 00:22:59;;;;;;;5.53;2.38;;;14.10;99.90;;;;;;5039732;28;20120;-67
2023/09/19 00:25:26;;;;;;;4.28;1.98;;;14.00;99.90;;;;;;4977771;28;20049;-67
2023/09/19 00:27:52;;;;;;;5.03;2.08;;;13.90;99.90;;;;;;5018935;28;20050;-67
2023/09/19 00:30:21;;;;;;;10.20;2.50;;;13.80;99.90;;;;;;4994499;28;20093;-67
2023/09/19 00:32:52;;;;;;;8.45;2.28;;;13.80;99.90;;;;;;5016292;28;20515;-67
2023/09/19 00:35:24;;;;;;;5.68;2.65;;;13.70;99.90;;;;;;5029819;28;20117;-67
2023/09/19 00:37:50;;;;;;;5.07;2.10;;;13.60;99.90;;;;;;4983670;28;20041;-67
2023/09/19 00:40:17;;;;;;;6.53;2.22;;;13.60;99.90;;;;;;4994359;28;20042;-67
2023/09/19 00:42:43;;;;;;;9.18;2.80;;;13.50;99.90;;;;;;4990992;28;20558;-67
2023/09/19 00:45:11;;;;;;;5.50;2.20;;;13.50;99.90;;;;;;5024647;28;20038;-67
2023/09/19 00:47:44;;;;;;;11.77;2.70;;;13.50;99.90;;;;;;5007788;28;20561;-67
2023/09/19 00:50:10;;;;;;;7.03;2.40;;;13.40;99.90;;;;;;5008153;28;20117;-67
2023/09/19 00:52:41;;;;;;;11.65;2.88;;;13.40;99.90;;;;;;4993472;28;20112;-67
2023/09/19 00:55:08;;;;;;;8.75;3.20;;;13.40;99.90;;;;;;5032585;28;20050;-68
2023/09/19 00:57:40;;;;;;;7.45;2.60;;;13.40;99.90;;;;;;4991549;28;20122;-67
2023/09/19 01:00:12;;;;;;;10.55;3.15;;;13.30;99.90;;;;;;5033644;28;20038;-67
2023/09/19 01:02:37;;;;;;;11.70;3.65;;;13.30;99.90;;;;;;5012108;28;20045;-67
2023/09/19 01:05:05;;;;;;;9.90;3.60;;;13.30;99.90;;;;;;4977285;28;20046;-67
2023/09/19 01:07:35;;;;;;;11.38;3.00;;;13.30;99.90;;;;;;5042061;28;20041;-67
2023/09/19 01:10:09;;;;;;;11.40;3.30;;;13.30;99.90;;;;;;4993662;28;20084;-67
2023/09/19 01:12:59;;;;;;;9.38;3.17;;;13.30;99.90;;;;;;5006748;28;20442;-67
2023/09/19 01:15:54;;;;;;;11.02;3.67;;;13.30;99.90;;;;;;5040372;28;20132;-67
2023/09/19 01:18:23;;;;;;;15.57;4.50;;;13.30;99.90;;;;;;4993358;28;20526;-67
2023/09/19 01:21:09;;;;;;;15.10;3.67;;;13.30;99.90;;;;;;4995627;28;20043;-67
2023/09/19 01:23:44;;;;;;;11.20;4.07;;;13.30;99.90;;;;;;5008889;28;20147;-67
2023/09/19 01:26:30;;;;;;;8.60;3.50;;;13.40;99.90;;;;;;4998123;28;20057;-67
2023/09/19 01:29:32;;;;;;;11.07;3.60;;;13.40;99.90;;;;;;5009714;28;20066;-67
2023/09/19 01:32:03;;;;;;;13.90;3.72;;;13.40;99.90;;;;;;5021920;28;20092;-67
2023/09/19 01:34:56;;;;;;;11.77;3.80;;;13.30;99.90;;;;;;4990430;28;20389;-67
2023/09/19 01:37:25;;;;;;;15.75;3.75;;;13.30;99.90;;;;;;5033155;28;20060;-68
2023/09/19 01:39:56;;;;;;;10.20;3.55;;;13.40;99.90;;;;;;5001671;28;20500;-68
2023/09/19 01:42:40;;;;;;;17.13;4.35;;;13.40;99.90;;;;;;5008353;28;20091;-68
2023/09/19 01:45:16;;;;;;;15.98;4.50;;;13.30;99.90;;;;;;5013222;28;20049;-68
2023/09/19 01:47:53;;;;;;;8.77;3.95;;;13.30;99.90;;;;;;5005229;28;20050;-67
2023/09/19 01:50:36;;;;;;;11.88;4.05;;;13.30;99.90;;;;;;5040083;28;20121;-67
2023/09/19 01:53:33;;;;;;;15.30;4.07;;;13.30;99.90;;;;;;5016188;28;20038;-67
2023/09/19 01:56:01;;;;;;;14.73;4.90;;;13.30;99.90;;;;;;4987714;28;20422;-67
2023/09/19 01:58:46;;;;;;;18.38;5.00;;;13.30;99.90;;;;;;5023621;28;20034;-68
2023/09/19 02:01:18;;;;;;;14.07;4.50;;;13.30;99.90;;;;;;4998579;28;20057;-68
2023/09/19 02:03:45;;;;;;;;;;;13.30;99.90;;;;;;5022506;28;20030;-68
2023/09/19 02:06:15;;;;;;;13.90;4.55;;;13.30;99.90;;;;;;5042875;28;19988;-68
2023/09/19 02:08:41;;;;;;;24.13;4.85;;;13.30;99.90;;;;;;4989051;28;20026;-67
2023/09/19 02:11:07;;;;;;;20.40;4.30;;;13.30;99.90;;;;;;5044365;28;20042;-67
2023/09/19 02:13:33;;;;;;;13.90;4.80;;;13.30;99.90;;;;;;5000562;28;20033;-67
2023/09/19 02:15:59;;;;;;;11.45;4.40;;;13.30;99.90;;;;;;5034198;28;20108;-67
2023/09/19 02:18:26;;;;;;;15.93;4.20;;;13.30;99.90;;;;;;5019873;28;20045;-68
2023/09/19 02:20:54;;;;;;;18.00;4.47;;;13.30;99.90;;;;;;4994031;28;20484;-68
2023/09/19 02:23:20;;;;;;;10.07;4.10;;;13.20;99.90;;;;;;5017596;28;20083;-67
2023/09/19 02:25:53;;;;;;;10.93;4.28;;;13.20;99.90;;;;;;4994250;28;20085;-67
2023/09/19 02:28:19;;;;;;;24.05;5.13;;;13.20;99.90;;;;;;5007397;28;20488;-68
2023/09/19 02:30:48;;;;;;;13.57;4.43;;;13.10;99.90;;;;;;4992464;28;20096;-68
2023/09/19 02:33:15;;;;;;;12.10;4.03;;;13.10;99.90;;;;;;5031976;28;20050;-68
2023/09/19 02:35:40;;;;;;;15.55;4.22;;;13.10;99.90;;;;;;4996427;28;20089;-68
2023/09/19 02:38:11;;;;;;;14.40;4.18;;;13.10;99.90;;;;;;4998740;28;20065;-67
2023/09/19 02:40:38;;;;;;;11.30;4.20;;;13.10;99.90;;;;;;4979605;28;20057;-68
2023/09/19 02:43:04;;;;;;;12.55;4.32;;;13.00;99.90;;;;;;5013899;28;20091;-68
2023/09/19 02:45:31;;;;;;;10.80;4.15;;;13.00;99.90;;;;;;5006028;28;20388;-67
2023/09/19 02:47:57;;;;;;;11.88;3.95;;;13.00;99.90;;;;;;5014264;28;20045;-67
2023/09/19 02:50:23;;;;;;;14.38;4.30;;;13.00;99.90;;;;;;5003487;28;20053;-68
2023/09/19 02:52:49;;;;;;;14.18;4.18;;;13.00;99.90;;;;;;5013489;28;20134;-67
2023/09/19 02:55:19;;;;;;;11.00;4.22;;;13.00;99.90;;;;;;5007008;28;20121;-68
2023/09/19 02:57:57;;;;;;;10.48;3.65;;;13.00;99.90;;;;;;4992927;28;20042;-68
2023/09/19 03:00:23;;;;;;;12.57;5.68;;;13.00;99.90;;;;;;5009945;28;20064;-68
2023/09/19 03:02:56;;;;;;;14.07;4.00;;;12.90;99.90;;;;;;5016141;28;20046;-68
2023/09/19 03:05:23;;;;;;;11.43;3.55;;;13.00;99.90;;;;;;5031230;28;20049;-68
2023/09/19 03:07:52;;;;;;;12.00;3.88;;;12.90;99.90;;;;;;5009742;28;20054;-67
2023/09/19 03:10:20;;;;;;;9.02;4.00;;;12.90;99.90;;;;;;5020050;28;20054;-67
2023/09/19 03:12:49;;;;;;;9.90;3.20;;;12.90;99.90;;;;;;5012134;28;20041;-68
2023/09/19 03:15:15;;;;;;;7.18;3.47;;;12.90;99.90;;;;;;5045718;28;20040;-67
2023/09/19 03:17:45;;;;;;;10.30;4.28;;;12.90;99.90;;;;;;4993104;28;20038;-68
2023/09/19 03:20:13;;;;;;;12.75;4.00;;;12.90;99.90;;;;;;4997189;28;20049;-67
2023/09/19 03:22:40;;;;;;;11.63;3.83;;;12.90;99.90;;;;;;5025718;28;20439;-68
2023/09/19 03:25:07;;;;;;;15.52;4.20;;;12.90;99.90;;;;;;5008235;28;20045;-67
2023/09/19 03:27:37;;;;;;;10.68;3.50;;;12.80;99.90;;;;;;4990698;28;20046;-64
2023/09/19 03:30:08;;;;;;;9.98;3.63;;;12.80;99.90;;;;;;4984689;28;20439;-65
2023/09/19 03:32:43;;;;;;;7.70;3.30;;;12.80;99.90;;;;;;4996093;28;20519;-65
2023/09/19 03:35:13;;;;;;;8.23;3.20;;;12.80;99.90;;;;;;5005510;28;20373;-65
2023/09/19 03:37:42;;;;;;;12.65;4.13;;;12.80;99.90;;;;;;5023900;28;20400;-65
2023/09/19 03:40:12;;;;;;;9.88;3.53;;;12.80;99.90;;;;;;5008748;28;20042;-65
2023/09/19 03:42:42;;;;;;;10.18;3.75;;;12.80;99.90;;;;;;4994357;28;20484;-64
2023/09/19 03:45:12;;;;;;;9.55;3.47;;;12.80;99.90;;;;;;4993803;28;20049;-64
2023/09/19 03:47:38;;;;;;;9.90;3.72;;;12.80;99.90;;;;;;5042023;28;20046;-64
2023/09/19 03:50:07;;;;;;;9.90;3.70;;;12.80;99.90;;;;;;4979588;28;20049;-65
2023/09/19 03:52:33;;;;;;;10.57;3.45;;;12.90;99.90;;;;;;5011664;28;20484;-65
2023/09/19 03:54:59;;;;;;;9.73;3.30;;;12.90;99.90;;;;;;4992906;28;20109;-65
2023/09/19 03:57:25;;;;;;;9.90;2.97;;;12.90;99.90;;;;;;4992332;28;20084;-65
2023/09/19 03:59:53;;;;;;;8.45;3.30;;;13.00;99.90;;;;;;5011127;28;20156;-65
2023/09/19 04:02:22;;;;;;;12.70;3.47;;;13.00;99.90;;;;;;4995734;28;20049;-65
2023/09/19 04:04:52;;;;;;;12.80;4.05;;;13.00;99.90;;;;;;4993850;28;20038;-65
2023/09/19 04:07:19;;;;;;;10.95;3.53;;;13.10;99.90;;;;;;5008664;28;20056;-65
2023/09/19 04:09:45;;;;;;;7.20;3.00;;;12.70;99.90;;;;;;5025737;28;20046;-64
2023/09/19 04:12:11;;;;;;;9.25;3.80;;;13.10;99.90;;;;;;4998391;28;20034;-65
2023/09/19 04:14:38;;;;;;;10.32;3.88;;;13.10;99.90;;;;;;5010807;28;20431;-65
2023/09/19 04:17:05;;;;;;;9.52;3.63;;;13.10;99.90;;;;;;4993864;28;20049;-65
2023/09/19 04:19:31;;;;;;;7.88;3.42;;;13.10;99.90;;;;;;5039131;28;20515;-65
2023/09/19 04:21:57;;;;;;;11.20;3.80;;;13.10;99.90;;;;;;4995879;28;20494;-65
2023/09/19 04:24:22;;;;;;;10.55;3.97;;;13.20;99.90;;;;;;4992267;28;20108;-65
2023/09/19 04:26:48;;;;;;;13.88;4.18;;;13.20;99.90;;;;;;5025238;28;20049;-65
2023/09/19 04:29:14;;;;;;;13.80;4.35;;;13.20;99.90;;;;;;4995086;28;20079;-65
2023/09/19 04:31:40;;;;;;;12.15;4.20;;;13.20;99.90;;;;;;4979482;28;20041;-64
2023/09/19 04:34:10;;;;;;;9.73;3.63;;;13.20;99.90;;;;;;4977345;28;20042;-65
2023/09/19 04:36:36;;;;;;;9.20;3.88;;;13.20;99.90;;;;;;4992658;28;20553;-65
2023/09/19 04:39:05;;;;;;;17.55;4.50;;;13.20;99.90;;;;;;5013423;28;20116;-64
2023/09/19 04:41:30;;;;;;;12.95;4.28;;;13.30;99.90;;;;;;5009556;28;20049;-65
2023/09/19 04:43:56;;;;;;;12.27;3.80;;;13.30;99.90;;;;;;4992987;28;20041;-64
2023/09/19 04:46:22;;;;;;;15.30;3.70;;;13.30;99.90;;;;;;5009173;28;20427;-64
2023/09/19 04:48:48;;;;;;;18.95;4.55;;;13.20;99.90;;;;;;5012097;28;20049;-64
2023/09/19 04:51:15;;;;;;;14.00;3.65;;;13.20;99.90;;;;;;5006693;28;20470;-64
2023/09/19 04:53:41;;;;;;;11.55;4.10;;;13.20;99.90;;;;;;4991947;28;20043;-65
2023/09/19 04:56:07;;;;;;;14.52;4.32;;;13.20;99.90;;;;;;4992577;28;20049;-64
2023/09/19 04:58:33;;;;;;;10.48;3.70;;;13.30;99.90;;;;;;5010357;28;20096;-65
2023/09/19 05:01:04;;;;;;;10.38;3.85;;;13.30;99.90;;;;;;5009108;28;20459;-65
2023/09/19 05:03:29;;;;;;;20.83;4.47;;;13.30;99.90;;;;;;5012879;28;20065;-65
2023/09/19 05:05:55;;;;;;;8.75;3.95;;;13.30;99.90;;;;;;4992037;28;20399;-64
2023/09/19 05:08:22;;;;;;;16.17;4.32;;;13.30;99.90;;;;;;4993070;28;20100;-64
2023/09/19 05:10:48;;;;;;;13.40;4.28;;;13.30;99.90;;;;;;4976595;28;20037;-65
2023/09/19 05:13:15;;;;;;;14.60;4.82;;;13.30;99.90;;;;;;5025241;28;20034;-65
2023/09/19 05:15:40;;;;;;;11.88;3.83;;;13.30;99.90;;;;;;5011711;28;20041;-64
2023/09/19 05:18:06;;;;;;;13.43;3.85;;;13.30;99.90;;;;;;4991278;28;20093;-64
2023/09/19 05:20:33;;;;;;;11.32;4.18;;;13.30;99.90;;;;;;4994423;28;20187;-65
2023/09/19 05:23:12;;;;;;;13.88;4.05;;;13.30;99.90;;;;;;4992902;28;20054;-64
2023/09/19 05:25:39;;;;;;;15.00;4.40;;;13.30;99.90;;;;;;5024481;28;20054;-65
2023/09/19 05:28:06;;;;;;;11.15;3.60;;;13.30;99.90;;;;;;5042756;28;20049;-66
2023/09/19 05:30:33;;;;;;;17.58;4.28;;;13.30;99.90;;;;;;5009646;28;20052;-65
2023/09/19 05:32:59;;;;;;;14.45;3.80;;;13.30;99.90;;;;;;4977523;28;20119;-65
2023/09/19 05:35:26;;;;;;;15.68;4.20;;;13.30;99.90;;;;;;5009491;28;20099;-65
2023/09/19 05:37:53;;;;;;;12.02;3.20;;;13.20;99.90;;;;;;5007491;28;20176;-65
2023/09/19 05:40:19;;;;;;;13.70;3.72;;;13.20;99.90;;;;;;4993141;28;20038;-65
2023/09/19 05:42:45;;;;;;;10.65;3.50;;;13.20;99.90;;;;;;5007339;28;20041;-66
2023/09/19 05:45:12;;;;;;;16.17;4.10;;;13.20;99.90;;;;;;4988203;28;20522;-66
2023/09/19 05:47:42;;;;;;;11.75;3.83;;;13.20;99.90;;;;;;5007903;28;20070;-66
2023/09/19 05:50:09;;;;;;;16.17;4.30;;;13.10;99.90;;;;;;5006312;28;20080;-66
2023/09/19 05:52:37;;;;;;;14.65;4.10;;;13.10;99.90;;;;;;5006935;28;20333;-66
2023/09/19 05:55:07;;;;;;;13.65;3.80;;;13.10;99.90;;;;;;4991656;28;20026;-65
2023/09/19 05:57:34;;;;;;;12.65;3.67;;;13.10;99.90;;;;;;5006193;28;20096;-66
2023/09/19 05:59:59;;;;;;;8.05;3.30;;;13.10;99.90;;;;;;4995896;28;20084;-66
2023/09/19 06:02:28;;;;;;;10.77;4.22;;;13.10;99.90;;;;;;4977405;28;20070;-65
2023/09/19 06:04:55;;;;;;;10.88;3.90;;;13.10;99.90;;;;;;4998127;28;20187;-66
2023/09/19 06:07:23;;;;;;;8.65;3.60;;;13.00;99.90;;;;;;5026605;28;20116;-65
2023/09/19 06:09:49;;;;;;;10.48;3.75;;;13.00;99.90;;;;;;5043456;28;20081;-65
2023/09/19 06:12:17;;;;;;;11.50;3.90;;;13.00;99.90;;;;;;4976225;28;20073;-65
2023/09/19 06:14:43;;;;;;;17.50;4.38;;;13.00;99.90;;;;;;4978277;28;20038;-65
2023/09/19 06:17:09;;;;;;;16.45;3.80;;;13.10;99.90;;;;;;4959979;28;20041;-65
2023/09/19 06:19:34;;;;;;;12.10;3.90;;;13.00;99.90;;;;;;4990075;28;20046;-65
2023/09/19 06:22:00;;;;;;;14.00;4.03;;;13.10;99.90;;;;;;4994482;28;20045;-65
2023/09/19 06:24:26;;;;;;;14.70;3.78;;;13.10;99.90;;;;;;4973993;28;20042;-66
2023/09/19 06:26:52;;;;;;;15.05;3.65;;;13.10;99.90;;;;;;5018594;28;20053;-66
2023/09/19 06:29:20;;;;;;;9.43;3.20;;;13.20;99.90;;;;;;4978798;28;20045;-65
2023/09/19 06:31:47;;;;;;;11.40;3.90;;;13.20;99.90;;;;;;5030074;28;20125;-66
2023/09/19 06:34:15;;;;;;;15.77;4.03;;;13.30;99.90;;;;;;5019481;28;21002;-66
2023/09/19 06:36:41;;;;;;;15.80;3.90;;;13.30;99.90;;;;;;5007654;28;20042;-66
2023/09/19 06:39:10;;;;;;;15.70;4.53;;;13.40;99.90;;;;;;4980933;28;20050;-65
2023/09/19 06:41:38;;;;;;;13.80;3.75;;;13.40;99.90;;;;;;4978275;28;20522;-65
2023/09/19 06:44:05;;;;;;;14.32;3.90;;;13.40;99.90;;;;;;5040574;28;20068;-66
2023/09/19 06:46:34;;;;;;;12.13;3.85;;;13.50;99.90;;;;;;5024427;28;20621;-65
2023/09/19 06:49:06;;;;;;;9.07;3.33;;;13.50;99.90;;;;;;5025958;28;20618;-66
2023/09/19 06:51:34;;;;;;;12.77;4.43;;;13.50;99.90;;;;;;4994467;28;20060;-66
2023/09/19 06:54:01;;;;;;;8.73;3.17;;;13.40;99.90;;;;;;4999721;28;20487;-65
2023/09/19 06:56:27;;;;;;;11.52;3.53;;;13.40;99.90;;;;;;5009818;28;20038;-66
2023/09/19 06:58:52;;;;;;;12.40;3.50;;;13.40;99.90;;;;;;5041214;28;20038;-66
2023/09/19 07:01:18;;;;;;;11.38;3.28;;;13.40;99.90;;;;;;5000968;28;20533;-66
2023/09/19 07:03:45;;;;;;;14.70;3.92;;;13.30;99.90;;;;;;4989871;28;20060;-65
2023/09/19 07:06:11;;;;;;;10.98;3.88;;;13.40;99.90;;;;;;4996205;28;20037;-65
2023/09/19 07:08:38;;;;;;;12.82;3.70;;;13.30;99.90;;;;;;5002351;28;20486;-65
2023/09/19 07:11:05;;;;;;;14.68;3.92;;;13.40;99.90;;;;;;4980391;28;20385;-66
2023/09/19 07:13:32;;;;;;;9.70;3.28;;;13.40;99.90;;;;;;5016840;28;20510;-66
2023/09/19 07:16:01;;;;;;;14.48;3.70;;;13.40;99.90;;;;;;5023368;28;20080;-66
2023/09/19 07:18:27;;;;;;;9.35;4.10;;;13.50;99.90;;;;;;5021545;28;20038;-65
2023/09/19 07:21:01;;;;;;;10.23;3.75;;;13.50;99.90;;;;;;4996579;28;20549;-65
2023/09/19 07:23:27;;;;;;;12.30;3.60;;;13.60;99.90;;;;;;5029022;28;20092;-65
2023/09/19 07:25:58;;;;;;;15.20;3.75;;;13.70;99.90;;;;;;5010385;28;20124;-65
2023/09/19 07:28:24;;;;;;;8.20;3.08;;;13.70;99.90;;;;;;4978139;28;20049;-65
2023/09/19 07:30:50;;;;;;;15.20;3.90;;;13.80;99.90;;;;;;4978645;28;20045;-66
2023/09/19 07:33:15;;;;;;;13.43;3.63;;;13.90;99.90;;;;;;4978073;28;20049;-65
2023/09/19 07:35:46;;;;;;;11.18;3.25;;;14.00;99.90;;;;;;4977843;28;20125;-65
2023/09/19 07:38:11;;;;;;;15.43;3.65;;;14.10;99.90;;;;;;5012733;28;20042;-65
2023/09/19 07:40:37;;;;;;;8.00;3.30;;;14.20;99.90;;;;;;4995551;28;20128;-65
2023/09/19 07:43:04;;;;;;;18.98;4.32;;;14.20;99.90;;;;;;4996995;28;20077;-65
2023/09/19 07:45:31;;;;;;;8.73;3.72;;;14.20;99.90;;;;;;5009183;28;20053;-65
2023/09/19 07:47:57;;;;;;;12.80;3.72;;;14.30;99.90;;;;;;5010796;28;20171;-65
2023/09/19 07:50:23;;;;;;;10.02;3.70;;;14.30;99.90;;;;;;4992980;28;20042;-65
2023/09/19 07:52:50;;;;;;;9.65;3.53;;;14.30;99.90;;;;;;5010484;28;20053;-64
2023/09/19 07:55:17;;;;;;;16.42;3.67;;;14.30;99.90;;;;;;5005451;28;20491;-65
2023/09/19 07:57:46;;;;;;;12.07;3.55;;;14.40;99.90;;;;;;5008250;28;20049;-65
2023/09/19 08:00:13;;;;;;;8.60;3.35;;;14.40;99.90;;;;;;5001527;28;20402;-65
2023/09/19 08:02:39;;;;;;;10.55;3.38;;;14.60;99.90;;;;;;5012259;28;20041;-66
2023/09/19 08:05:09;;;;;;;7.97;3.40;;;14.90;99.90;;;;;;4979138;28;20077;-65
2023/09/19 08:07:36;;;;;;;15.70;3.95;;;15.00;99.90;;;;;;4997946;28;20096;-65
2023/09/19 08:10:16;;;;;;;11.80;4.00;;;15.20;99.90;;;;;;5011649;28;20046;-65
2023/09/19 08:12:46;;;;;;;12.25;4.22;;;15.30;99.90;;;;;;4981576;28;20550;-65
2023/09/19 08:15:16;;;;;;;12.45;3.45;;;15.40;99.90;;;;;;5006974;28;20507;-66
2023/09/19 08:17:43;;;;;;;11.50;3.63;;;15.40;99.90;;;;;;5007789;28;20038;-64
2023/09/19 08:20:19;;;;;;;12.50;3.63;;;15.40;99.90;;;;;;5000161;28;20045;-65
2023/09/19 08:22:54;;;;;;;12.13;3.42;;;15.40;99.90;;;;;;5040669;28;20053;-65
2023/09/19 08:25:21;;;;;;;15.02;3.50;;;15.40;99.90;;;;;;5029049;28;20041;-66
2023/09/19 08:27:50;;;;;;;9.63;3.30;;;15.40;99.90;;;;;;5008485;28;20302;-65
2023/09/19 08:30:23;;;;;;;12.82;3.65;;;15.50;99.90;;;;;;4997672;28;20049;-66
2023/09/19 08:32:50;;;;;;;13.23;3.90;;;15.50;99.90;;;;;;5008924;28;20046;-66
2023/09/19 08:35:16;;;;;;;9.68;3.45;;;15.50;99.90;;;;;;4976484;28;20038;-65
2023/09/19 08:37:45;;;;;;;14.85;4.30;;;15.50;99.90;;;;;;5009604;28;20124;-66
2023/09/19 08:40:14;;;;;;;15.50;3.70;;;15.60;99.90;;;;;;5007437;28;20048;-65
2023/09/19 08:42:56;;;;;;;15.57;4.13;;;15.60;99.90;;;;;;4993367;28;20046;-66
2023/09/19 08:45:27;;;;;;;12.77;4.03;;;15.60;99.90;;;;;;5043833;28;20130;-66
2023/09/19 08:48:13;;;;;;;11.65;4.07;;;15.70;99.90;;;;;;4993598;28;20144;-66
2023/09/19 08:51:07;;;;;;;11.75;3.72;;;15.80;99.90;;;;;;4997511;28;20046;-66
2023/09/19 08:53:39;;;;;;;13.02;3.65;;;15.90;99.90;;;;;;4991760;28;20068;-66
2023/09/19 10:28:21;;;;;;;13.68;4.13;;;17.70;99.90;;;;;;5010712;28;20392;-74
2023/09/19 10:30:52;;;;;;;14.30;4.00;;;17.90;99.90;;;;;;5006702;28;20052;-65
2023/09/19 10:33:20;;;;;;;10.73;4.00;;;17.80;99.90;;;;;;4994658;28;20051;-74
2023/09/19 10:35:48;;;;;;;14.38;4.15;;;17.80;99.90;;;;;;4996023;28;20038;-75
2023/09/19 10:38:21;;;;;;;13.50;3.97;;;17.80;99.90;;;;;;5012841;28;20046;-75
2023/09/19 10:40:51;;;;;;;11.13;3.63;;;17.90;99.90;;;;;;4991816;28;20046;-65
2023/09/19 10:43:20;;;;;;;12.23;3.97;;;18.00;99.90;;;;;;5006530;28;20117;-65
2023/09/19 10:45:53;;;;;;;9.73;3.72;;;18.10;99.90;;;;;;4972628;28;20082;-64
2023/09/19 10:48:20;;;;;;;10.82;3.50;;;18.20;99.90;;;;;;4998064;28;20088;-65
2023/09/19 10:50:59;;;;;;;10.68;3.60;;;18.10;99.90;;;;;;5007510;28;20042;-74
2023/09/19 10:53:27;;;;;;;12.88;4.00;;;18.00;99.90;;;;;;4996168;28;20042;-76
2023/09/19 10:55:59;;;;;;;8.73;3.70;;;18.10;99.90;;;;;;4973980;28;20065;-75
2023/09/19 10:58:34;;;;;;;12.15;3.20;;;18.00;99.90;;;;;;4973728;28;20050;-76
2023/09/19 11:01:05;;;;;;;11.77;4.13;;;18.00;99.90;;;;;;5008947;28;20085;-75
2023/09/19 11:03:32;;;;;;;14.38;3.60;;;18.00;99.90;;;;;;5007440;28;20034;-74
2023/09/19 11:06:18;;;;;;;9.48;3.38;;;18.00;99.90;;;;;;5007762;28;20531;-74
2023/09/19 11:08:56;;;;;;;13.60;3.47;;;18.10;99.90;;;;;;4983944;28;20061;-74
2023/09/19 11:11:40;;;;;;;15.27;3.60;;;17.90;99.90;;;;;;5000762;28;20042;-74
2023/09/19 11:14:24;;;;;;;9.13;3.58;;;18.10;99.90;;;;;;5001967;28;20136;-73
2023/09/19 11:17:15;;;;;;;9.73;3.97;;;18.00;99.90;;;;;;5008486;28;20508;-72
2023/09/19 11:22:56;;;;;;;14.02;3.53;;;17.90;99.90;;;;;;4989784;28;20086;-74
2023/09/19 11:28:07;;;;;;;10.43;3.65;;;18.20;99.90;;;;;;5001098;28;20389;-74
2023/09/19 11:30:40;;;;;;;10.07;3.60;;;18.30;99.90;;;;;;4994093;28;20038;-72
2023/09/19 11:33:33;;;;;;;11.70;3.63;;;18.30;99.90;;;;;;4983175;28;20109;-74
2023/09/19 11:36:05;;;;;;;12.80;3.33;;;18.30;99.90;;;;;;4992146;28;20101;-73
2023/09/19 11:38:46;;;;;;;15.00;3.80;;;18.20;99.90;;;;;;4995016;28;20113;-73
2023/09/19 11:41:25;;;;;;;8.90;3.53;;;18.20;99.90;;;;;;4994891;28;20050;-73
2023/09/19 11:43:51;;;;;;;10.23;3.15;;;18.10;99.90;;;;;;4987206;28;20046;-73
2023/09/19 11:46:21;;;;;;;10.38;3.40;;;18.10;99.90;;;;;;4993338;28;20512;-74
2023/09/19 11:48:51;;;;;;;9.10;3.58;;;18.20;99.90;;;;;;4994897;28;20045;-73
2023/09/19 11:51:27;;;;;;;8.93;3.13;;;18.40;99.90;;;;;;4994882;28;20042;-73
2023/09/19 11:54:02;;;;;;;11.63;3.40;;;18.50;99.90;;;;;;4994351;28;20566;-73
2023/09/19 11:56:28;;;;;;;11.88;3.78;;;18.50;99.90;;;;;;4977583;28;20100;-71
2023/09/19 11:58:55;;;;;;;11.52;3.55;;;18.50;99.90;;;;;;4990080;28;20043;-72
2023/09/19 12:01:32;;;;;;;10.40;3.58;;;18.60;99.90;;;;;;4974965;28;20030;-74
2023/09/19 12:03:59;;;;;;;11.90;3.63;;;18.50;99.90;;;;;;4972834;28;20452;-73
2023/09/19 12:06:26;;;;;;;9.18;3.22;;;18.50;99.90;;;;;;4988460;28;20068;-72
2023/09/19 12:08:57;;;;;;;9.23;2.88;;;18.50;99.90;;;;;;4976677;28;20496;-73
2023/09/19 12:11:23;;;;;;;11.23;3.67;;;18.50;99.90;;;;;;4992893;28;20064;-72
2023/09/19 12:13:50;;;;;;;10.85;3.20;;;18.50;99.90;;;;;;4993916;28;20089;-73
2023/09/19 12:16:23;;;;;;;8.70;3.17;;;18.50;99.90;;;;;;4987237;28;20053;-73
2023/09/19 12:18:50;;;;;;;10.98;3.58;;;18.40;99.90;;;;;;4984054;28;20104;-72
2023/09/19 12:21:32;;;;;;;9.63;3.40;;;18.30;99.90;;;;;;4980328;28;20432;-74
2023/09/19 12:24:13;;;;;;;10.27;3.53;;;18.20;99.90;;;;;;4969321;28;20099;-71
2023/09/19 12:26:44;;;;;;;11.90;3.53;;;18.10;99.90;;;;;;4969865;28;20347;-72
2023/09/19 12:29:21;;;;;;;9.57;3.33;;;18.10;99.90;;;;;;4967043;28;20058;-71
2023/09/19 12:31:50;;;;;;;11.77;3.50;;;18.10;99.90;;;;;;4956929;28;20433;-73
2023/09/19 12:34:22;;;;;;;8.77;3.28;;;18.20;99.90;;;;;;4972212;28;20520;-71
2023/09/19 12:36:49;;;;;;;13.57;3.35;;;18.30;99.90;;;;;;4969051;28;20046;-70
2023/09/19 12:39:25;;;;;;;8.80;3.00;;;18.40;99.90;;;;;;4968407;28;20095;-71
2023/09/19 12:41:53;;;;;;;11.23;3.75;;;18.50;99.90;;;;;;4957366;28;20445;-71
2023/09/19 12:44:19;;;;;;;11.75;3.55;;;18.50;99.90;;;;;;4972040;28;20045;-71
2023/09/19 12:46:45;;;;;;;12.90;3.17;;;18.40;99.90;;;;;;4974338;28;20497;-73
2023/09/19 12:49:21;;;;;;;11.45;3.38;;;18.40;99.90;;;;;;4971040;28;20137;-71
2023/09/19 12:51:47;;;;;;;9.98;2.95;;;18.30;99.90;;;;;;4972037;28;20049;-71
2023/09/19 12:54:17;;;;;;;15.63;3.35;;;18.30;99.90;;;;;;4975010;28;20070;-73
2023/09/19 12:56:44;;;;;;;10.63;3.40;;;18.30;99.90;;;;;;4974085;28;20043;-71
2023/09/19 12:59:14;;;;;;;10.20;3.38;;;18.30;99.90;;;;;;4973151;28;20513;-72
2023/09/19 13:01:49;;;;;;;12.50;3.58;;;18.30;99.90;;;;;;4972751;28;20042;-72
2023/09/19 13:04:20;;;;;;;13.15;3.70;;;18.40;99.90;;;;;;4968759;28;20046;-70
2023/09/19 13:06:50;;;;;;;13.07;3.40;;;18.40;99.90;;;;;;4970678;28;20462;-72
2023/09/19 13:09:34;;;;;;;7.22;2.75;;;18.30;99.90;;;;;;4970698;28;20045;-71
2023/09/19 13:12:02;;;;;;;10.40;3.40;;;18.30;99.90;;;;;;4953013;28;20045;-73
2023/09/19 13:14:37;;;;;;;8.85;2.83;;;18.30;99.90;;;;;;4969245;28;20776;-72
2023/09/19 13:17:18;;;;;;;8.10;2.70;;;18.30;99.90;;;;;;4952796;28;20088;-73
2023/09/19 13:19:49;;;;;;;10.27;3.13;;;18.20;99.90;;;;;;4971637;28;20544;-73
2023/09/19 13:22:42;;;;;;;9.43;2.80;;;18.20;99.90;;;;;;4975744;28;20049;-72
2023/09/19 13:25:15;;;;;;;9.82;3.00;;;18.20;99.90;;;;;;4974574;28;20074;-72
2023/09/19 13:27:44;;;;;;;10.07;2.72;;;18.20;99.90;;;;;;4973339;28;20046;-72
2023/09/19 13:30:10;;;;;;;10.45;3.22;;;18.10;99.90;;;;;;4975288;28;20089;-72
2023/09/19 13:32:39;;;;;;;7.75;2.70;;;18.10;99.90;;;;;;4973169;28;20488;-72
2023/09/19 13:35:08;;;;;;;6.90;2.72;;;18.10;99.90;;;;;;4980483;28;20489;-72
2023/09/19 13:37:40;;;;;;;8.70;2.67;;;18.10;99.90;;;;;;4973147;28;20062;-72
2023/09/19 13:40:09;;;;;;;;;;;18.10;99.90;;;;;;4975253;28;20046;-73
2023/09/19 13:42:36;;;;;;;7.82;2.70;;;18.00;99.90;;;;;;4977661;28;19929;-72
2023/09/19 13:45:06;;;;;;;5.10;2.50;;;18.10;99.90;;;;;;4971610;28;20046;-72
2023/09/19 13:47:32;;;;;;;9.95;3.08;;;18.10;99.90;;;;;;4958771;28;20042;-72
2023/09/19 13:50:00;;;;;;;8.73;2.65;;;18.10;99.90;;;;;;4972723;28;20050;-73
2023/09/19 13:52:28;;;;;;;8.20;2.97;;;18.00;99.90;;;;;;4973657;28;20049;-73
2023/09/19 13:54:56;;;;;;;11.70;3.20;;;18.00;99.90;;;;;;4957592;28;20107;-73
2023/09/19 13:57:23;;;;;;;5.18;2.67;;;18.00;99.90;;;;;;4958012;28;20050;-71
2023/09/19 13:59:48;;;;;;;7.75;2.90;;;18.00;99.90;;;;;;4958364;28;20061;-71
2023/09/19 14:02:14;;;;;;;6.00;2.45;;;18.00;99.90;;;;;;4971102;28;20130;-71
2023/09/19 14:04:40;;;;;;;7.30;2.28;;;18.00;99.90;;;;;;4973101;28;20038;-70
2023/09/19 14:07:07;;;;;;;9.38;2.63;;;18.00;99.90;;;;;;4973777;28;20050;-71
2023/09/19 14:09:33;;;;;;;15.57;2.75;;;18.10;99.90;;;;;;4979604;28;20492;-71
2023/09/19 14:11:59;;;;;;;7.30;2.20;;;18.10;99.90;;;;;;4972288;28;20507;-71
2023/09/19 14:14:25;;;;;;;13.43;3.22;;;18.20;99.90;;;;;;4989827;28;20034;-72
2023/09/19 14:16:54;;;;;;;8.70;2.50;;;18.20;99.90;;;;;;4971013;28;20382;-72
2023/09/19 14:19:21;;;;;;;10.63;2.50;;;18.30;99.90;;;;;;4985848;28;20045;-71
2023/09/19 14:21:47;;;;;;;11.20;2.50;;;18.30;99.90;;;;;;4990442;28;20132;-72
2023/09/19 14:24:23;;;;;;;7.93;2.50;;;18.30;99.90;;;;;;4987459;28;20449;-72
2023/09/19 14:26:50;;;;;;;7.15;2.17;;;18.30;99.90;;;;;;4979132;28;20088;-72
2023/09/19 14:29:16;;;;;;;6.82;2.10;;;18.30;99.90;;;;;;4989091;28;20042;-72
2023/09/19 14:31:43;;;;;;;7.45;2.63;;;18.30;99.90;;;;;;4989272;28;20135;-72